Time;durP1;ratioP1;P1;durP2;ratioP2;P2;SDS_P1;SDS_P2;PMS_P1;PMS_P2;Temp;Humidity;BMP_temperature;BMP_pressure;BME280_temperature;BME280_humidity;BME280_pressure;Samples;Min_cycle;Max_cycle;Signal;HPM_P1;HPM_P2
2023/05/13 00:01:22;;;;;;;20.30;18.25;;;;;;;14.51;100.00;102112.50;4995006;28;20039;-49
2023/05/13 00:03:47;;;;;;;19.00;16.98;;;;;;;14.21;100.00;102054.22;4995283;28;20050;-45
2023/05/13 00:06:12;;;;;;;17.60;16.10;;;;;;;14.17;100.00;102049.91;4994537;28;20427;-47
2023/05/13 00:08:38;;;;;;;18.10;16.48;;;;;;;14.54;100.00;102119.50;4994816;28;20482;-44
2023/05/13 00:11:03;;;;;;;17.40;15.70;;;;;;;14.53;100.00;102101.91;4969487;28;20073;-46
2023/05/13 00:13:28;;;;;;;16.60;14.80;;;;;;;14.21;100.00;102043.63;5013055;28;20116;-44
2023/05/13 00:15:54;;;;;;;16.60;14.70;;;;;;;14.18;100.00;102041.06;5012950;28;20150;-45
2023/05/13 00:18:19;;;;;;;16.63;14.05;;;;;;;14.25;100.00;102056.72;5014416;28;20038;-44
2023/05/13 00:20:44;;;;;;;16.42;14.80;;;;;;;14.48;100.00;102091.41;4980636;28;20029;-43
2023/05/13 00:23:10;;;;;;;15.68;14.25;;;;;;;14.29;100.00;102066.34;4996725;28;20042;-44
2023/05/13 00:25:36;;;;;;;15.75;14.32;;;;;;;14.53;100.00;102105.41;5014155;28;20229;-46
2023/05/13 00:28:01;;;;;;;16.33;14.80;;;;;;;14.51;100.00;102109.00;5014267;28;20041;-43
2023/05/13 00:30:27;;;;;;;16.10;14.40;;;;;;;14.10;100.00;102046.56;4995290;28;20046;-48
2023/05/13 00:32:52;;;;;;;17.13;14.35;;;;;;;14.36;100.00;102106.81;4996283;28;20041;-49
2023/05/13 00:35:17;;;;;;;15.45;13.90;;;;;;;14.36;100.00;102114.75;5013958;28;20034;-45
2023/05/13 00:37:43;;;;;;;15.57;14.00;;;;;;;13.94;100.00;102050.56;5013863;28;20033;-47
2023/05/13 00:40:29;;;;;;;15.10;13.75;;;;;;;14.30;100.00;102115.72;5013816;28;20034;-46
2023/05/13 00:42:55;;;;;;;14.57;13.13;;;;;;;14.25;100.00;102108.81;5012182;28;20046;-48
2023/05/13 00:45:20;;;;;;;15.60;13.88;;;;;;;14.21;100.00;102115.13;5014032;28;20037;-44
2023/05/13 00:47:46;;;;;;;14.52;13.13;;;;;;;13.89;100.00;102055.09;5012264;28;20113;-44
2023/05/13 00:50:13;;;;;;;13.95;12.65;;;;;;;14.17;100.00;102110.81;5013790;28;20113;-44
2023/05/13 00:52:40;;;;;;;15.48;13.43;;;;;;;13.80;100.00;102058.88;5013629;28;20113;-44
2023/05/13 00:55:06;;;;;;;14.27;12.77;;;;;;;14.11;100.00;102119.78;5013933;28;20034;-44
2023/05/13 00:57:32;;;;;;;15.45;13.95;;;;;;;13.98;100.00;102111.28;4995223;28;20045;-48
2023/05/13 00:59:57;;;;;;;14.00;12.70;;;;;;;14.01;100.00;102115.63;4996051;28;20113;-45
2023/05/13 01:02:34;;;;;;;13.68;12.27;;;;;;;14.03;100.00;102113.84;4995889;28;20069;-46
2023/05/13 01:05:15;;;;;;;16.25;12.20;;;;;;;13.68;100.00;102068.91;5011902;28;20381;-46
2023/05/13 01:07:52;;;;;;;13.20;12.05;;;;;;;13.88;100.00;102101.88;5013590;28;20040;-47
2023/05/13 01:10:45;;;;;;;12.68;11.57;;;;;;;13.91;100.00;102107.09;5013223;28;20030;-44
2023/05/13 01:13:12;;;;;;;12.13;11.02;;;;;;;13.86;100.00;102118.72;5003552;28;20072;-46
2023/05/13 01:16:02;;;;;;;12.38;11.25;;;;;;;13.76;100.00;102117.19;4995730;28;20412;-46
2023/05/13 01:18:39;;;;;;;12.93;11.75;;;;;;;13.38;100.00;102052.88;4995898;28;20033;-43
2023/05/13 01:21:05;;;;;;;12.65;11.45;;;;;;;13.47;100.00;102071.19;5011820;28;20034;-45
2023/05/13 01:23:30;;;;;;;15.23;11.02;;;;;;;13.17;100.00;102045.47;4995587;28;20114;-46
2023/05/13 01:25:56;;;;;;;12.35;11.23;;;;;;;13.01;100.00;102037.91;4995724;28;20487;-45
2023/05/13 01:28:21;;;;;;;13.45;12.13;;;;;;;13.25;100.00;102106.13;5013100;28;20045;-45
2023/05/13 01:30:47;;;;;;;13.13;12.00;;;;;;;12.91;100.00;102058.38;5012924;28;20037;-45
2023/05/13 01:33:13;;;;;;;12.32;11.05;;;;;;;13.12;100.00;102109.94;4995575;28;20061;-45
2023/05/13 01:35:39;;;;;;;12.80;11.48;;;;;;;12.95;100.00;102097.06;4993845;28;20046;-48
2023/05/13 01:38:05;;;;;;;12.52;11.40;;;;;;;12.89;100.00;102106.00;4995516;28;20038;-50
2023/05/13 01:40:31;;;;;;;12.85;11.75;;;;;;;12.82;100.00;102124.66;4995361;28;20042;-44
2023/05/13 01:42:56;;;;;;;11.75;10.70;;;;;;;12.32;100.00;102041.19;5013152;28;20121;-45
2023/05/13 01:45:21;;;;;;;16.00;11.80;;;;;;;12.65;100.00;102111.81;4995397;28;20495;-45
2023/05/13 01:47:47;;;;;;;13.02;11.68;;;;;;;12.50;100.00;102093.63;5008434;28;20038;-43
2023/05/13 01:50:12;;;;;;;11.85;10.65;;;;;;;12.51;100.00;102107.69;5008219;28;20049;-52
2023/05/13 01:52:37;;;;;;;12.68;11.38;;;;;;;12.46;100.00;102109.56;5012767;28;20034;-45
2023/05/13 01:55:03;;;;;;;14.00;11.75;;;;;;;12.11;100.00;102049.56;5012787;28;20429;-44
2023/05/13 01:57:28;;;;;;;11.52;10.25;;;;;;;12.50;100.00;102112.09;4989026;28;20045;-44
2023/05/13 01:59:54;;;;;;;12.63;10.02;;;;;;;12.49;100.00;102109.50;5010571;28;20112;-44
2023/05/13 02:02:19;;;;;;;12.63;11.32;;;;;;;12.46;100.00;102110.44;5012384;28;20042;-43
2023/05/13 02:04:44;;;;;;;11.27;9.82;;;;;;;12.13;100.00;102061.81;5012615;28;20038;-49
2023/05/13 02:07:10;;;;;;;10.68;9.07;;;;;;;12.01;100.00;102054.13;5012608;28;20034;-43
2023/05/13 02:09:35;;;;;;;13.23;10.52;;;;;;;12.35;100.00;102115.91;5015658;28;20034;-49
2023/05/13 02:12:00;;;;;;;10.82;9.77;;;;;;;12.21;100.00;102106.53;5019145;28;20049;-46
2023/05/13 02:14:26;;;;;;;11.20;10.02;;;;;;;12.20;100.00;102112.72;5019333;28;20493;-46
2023/05/13 02:16:51;;;;;;;11.32;10.32;;;;;;;12.13;100.00;102119.00;5017510;28;20026;-44
2023/05/13 02:19:16;;;;;;;12.30;10.57;;;;;;;12.04;100.00;102116.53;5019290;28;20128;-47
2023/05/13 02:21:42;;;;;;;11.52;10.40;;;;;;;11.80;100.00;102087.03;5001463;28;20044;-44
2023/05/13 02:24:08;;;;;;;12.20;10.50;;;;;;;11.90;100.00;102122.06;5019011;28;20644;-45
2023/05/13 02:26:33;;;;;;;11.82;10.70;;;;;;;11.55;100.00;102069.88;5018882;28;20038;-46
2023/05/13 02:28:58;;;;;;;11.63;10.27;;;;;;;11.43;100.00;102056.03;5019134;28;20079;-45
2023/05/13 02:31:24;;;;;;;11.23;10.10;;;;;;;11.39;100.00;102065.75;5018812;28;20030;-44
2023/05/13 02:33:49;;;;;;;11.73;10.45;;;;;;;11.59;100.00;102113.75;5017368;28;20045;-44
2023/05/13 02:36:15;;;;;;;10.98;9.98;;;;;;;11.63;100.00;102126.00;5018682;28;20034;-44
2023/05/13 02:38:40;;;;;;;11.82;9.40;;;;;;;11.57;100.00;102115.53;5001230;28;20029;-42
2023/05/13 02:41:05;;;;;;;11.43;10.43;;;;;;;11.35;100.00;102069.34;4985048;28;20080;-44
2023/05/13 02:43:31;;;;;;;11.60;9.88;;;;;;;11.66;100.00;102125.06;5018794;28;20030;-43
2023/05/13 02:45:56;;;;;;;11.85;10.60;;;;;;;11.71;100.00;102131.16;5018825;28;20042;-49
2023/05/13 02:48:21;;;;;;;13.00;9.25;;;;;;;11.35;100.00;102063.19;5017696;28;20034;-44
2023/05/13 02:50:47;;;;;;;11.27;10.18;;;;;;;11.72;100.00;102125.00;4999898;28;20120;-45
2023/05/13 02:53:12;;;;;;;12.38;9.55;;;;;;;11.62;100.00;102103.16;5017493;28;20073;-49
2023/05/13 02:55:37;;;;;;;9.65;8.65;;;;;;;11.48;100.00;102072.63;5018618;28;20436;-44
2023/05/13 02:58:03;;;;;;;9.30;8.50;;;;;;;11.63;100.00;102111.94;5001191;28;20400;-43
2023/05/13 03:00:28;;;;;;;10.57;9.07;;;;;;;11.74;100.00;102121.44;5018829;28;20378;-44
2023/05/13 03:02:55;;;;;;;10.00;8.95;;;;;;;11.83;100.00;102134.47;5018399;28;20069;-48
2023/05/13 03:05:20;;;;;;;9.40;8.48;;;;;;;11.78;100.00;102124.91;5000875;28;20038;-46
2023/05/13 03:07:46;;;;;;;9.65;8.82;;;;;;;11.79;100.00;102132.78;5017159;28;20034;-44
2023/05/13 03:10:11;;;;;;;9.18;8.23;;;;;;;11.76;100.00;102135.47;5018471;28;20029;-45
2023/05/13 03:12:36;;;;;;;8.60;7.80;;;;;;;11.59;100.00;102108.47;5018347;28;20050;-45
2023/05/13 03:15:02;;;;;;;10.07;8.35;;;;;;;11.76;100.00;102132.84;5018414;28;20080;-44
2023/05/13 03:17:30;;;;;;;12.95;9.43;;;;;;;11.77;100.00;102131.94;5018566;28;20036;-43
2023/05/13 03:19:56;;;;;;;10.48;8.30;;;;;;;11.72;100.00;102127.66;5018501;28;20548;-46
2023/05/13 03:22:21;;;;;;;9.23;8.43;;;;;;;11.69;100.00;102131.22;4996896;28;20042;-48
2023/05/13 03:24:46;;;;;;;9.90;8.88;;;;;;;11.68;100.00;102136.47;4996191;28;20041;-44
2023/05/13 03:27:12;;;;;;;12.25;9.70;;;;;;;11.28;100.00;102078.22;5015507;28;20492;-46
2023/05/13 03:29:37;;;;;;;9.98;8.90;;;;;;;11.57;100.00;102131.38;5015430;28;20367;-48
2023/05/13 03:32:05;;;;;;;10.18;8.25;;;;;;;11.39;100.00;102115.84;5015354;28;20397;-43
2023/05/13 03:34:31;;;;;;;11.95;8.90;;;;;;;11.47;100.00;102139.47;4997857;28;20030;-43
2023/05/13 03:36:56;;;;;;;10.07;8.77;;;;;;;11.04;100.00;102068.06;4997579;28;20060;-48
2023/05/13 03:39:21;;;;;;;12.27;9.52;;;;;;;10.97;100.00;102066.41;5014937;28;20504;-45
2023/05/13 03:41:47;;;;;;;11.63;9.30;;;;;;;10.93;100.00;102070.84;5013362;28;20037;-43
2023/05/13 03:44:12;;;;;;;12.82;9.45;;;;;;;11.26;100.00;102135.38;5015232;28;20050;-43
2023/05/13 03:46:37;;;;;;;11.23;9.23;;;;;;;11.00;100.00;102100.63;5014970;28;20155;-44
2023/05/13 03:49:03;;;;;;;11.93;9.98;;;;;;;11.16;100.00;102136.38;4997414;28;20041;-43
2023/05/13 03:51:28;;;;;;;10.10;9.30;;;;;;;11.10;100.00;102129.44;5015236;28;20036;-48
2023/05/13 03:53:53;;;;;;;10.35;9.23;;;;;;;11.03;100.00;102140.94;4996991;28;20070;-45
2023/05/13 03:56:20;;;;;;;11.73;10.13;;;;;;;10.96;100.00;102138.44;5014914;28;20042;-50
2023/05/13 03:58:45;;;;;;;11.73;10.48;;;;;;;10.51;100.00;102080.19;5013164;28;20402;-44
2023/05/13 04:01:10;;;;;;;11.85;10.43;;;;;;;10.84;100.00;102141.22;5014684;28;20044;-45
2023/05/13 04:03:36;;;;;;;11.45;9.88;;;;;;;10.80;100.00;102136.91;5013517;28;20397;-47
2023/05/13 04:06:01;;;;;;;12.20;10.63;;;;;;;10.76;100.00;102137.81;5014318;28;20477;-47
2023/05/13 04:08:27;;;;;;;13.57;10.93;;;;;;;10.75;100.00;102129.03;5014451;28;20038;-45
2023/05/13 04:10:52;;;;;;;13.85;10.48;;;;;;;10.83;100.00;102137.72;4996932;28;20482;-46
2023/05/13 04:13:18;;;;;;;14.27;10.98;;;;;;;10.54;100.00;102071.38;5014439;28;20429;-42
2023/05/13 04:15:44;;;;;;;15.48;10.80;;;;;;;10.70;100.00;102089.63;4995260;28;20077;-44
2023/05/13 04:18:09;;;;;;;12.98;11.68;;;;;;;10.99;100.00;102122.59;5014407;28;20065;-48
2023/05/13 04:20:38;;;;;;;15.45;11.98;;;;;;;10.68;100.00;102065.03;5014699;28;20091;-44
2023/05/13 04:23:04;;;;;;;14.88;12.13;;;;;;;11.09;100.00;102126.84;4996590;28;20045;-44
2023/05/13 04:25:29;;;;;;;16.17;13.07;;;;;;;10.80;100.00;102071.06;5014306;28;20037;-43
2023/05/13 04:27:54;;;;;;;15.02;13.18;;;;;;;11.16;100.00;102133.75;5014252;28;20403;-44
2023/05/13 04:30:20;;;;;;;14.95;13.35;;;;;;;11.22;100.00;102133.66;5014268;28;20041;-46
2023/05/13 04:32:45;;;;;;;16.77;13.38;;;;;;;11.27;100.00;102137.97;5012328;28;20034;-43
2023/05/13 04:35:11;;;;;;;17.98;14.32;;;;;;;11.33;100.00;102137.00;5013925;28;20489;-45
2023/05/13 04:37:36;;;;;;;19.13;15.95;;;;;;;11.08;100.00;102093.47;5013897;28;20034;-43
2023/05/13 04:40:01;;;;;;;17.35;15.60;;;;;;;11.42;100.00;102139.50;5014135;28;20034;-44
2023/05/13 04:42:27;;;;;;;18.55;16.65;;;;;;;11.04;100.00;102075.94;5014119;28;20045;-46
2023/05/13 04:44:52;;;;;;;18.15;16.33;;;;;;;11.42;100.00;102136.88;5013914;28;20091;-45
2023/05/13 04:47:17;;;;;;;18.77;16.83;;;;;;;11.39;100.00;102146.59;4994619;28;20029;-49
2023/05/13 04:49:43;;;;;;;21.83;17.17;;;;;;;10.98;100.00;102079.56;5013654;28;20030;-47
2023/05/13 04:52:10;;;;;;;24.23;17.42;;;;;;;11.42;100.00;102134.25;5013636;28;20141;-42
2023/05/13 04:54:37;;;;;;;23.55;19.02;;;;;;;11.23;100.00;102107.31;5012454;28;20033;-43
2023/05/13 04:57:02;;;;;;;22.55;18.35;;;;;;;11.20;100.00;102095.94;5013836;28;20034;-44
2023/05/13 04:59:27;;;;;;;20.73;18.63;;;;;;;11.14;100.00;102077.56;5012647;28;20077;-46
2023/05/13 05:01:53;;;;;;;21.75;19.45;;;;;;;11.19;100.00;102079.25;4979708;28;20374;-46
2023/05/13 05:04:19;;;;;;;25.38;20.40;;;;;;;11.57;100.00;102141.91;4994539;28;20524;-47
2023/05/13 05:06:44;;;;;;;24.23;20.45;;;;;;;11.60;100.00;102147.16;5013296;28;20121;-46
2023/05/13 05:09:09;;;;;;;22.98;19.55;;;;;;;11.60;100.00;102152.41;5013212;28;20389;-46
2023/05/13 05:11:35;;;;;;;25.33;20.10;;;;;;;11.49;100.00;102133.25;5013030;28;20497;-43
2023/05/13 05:14:00;;;;;;;22.80;20.25;;;;;;;11.65;100.00;102145.28;5013278;28;20030;-47
2023/05/13 05:16:25;;;;;;;22.83;20.45;;;;;;;11.68;100.00;102139.97;5012976;28;20064;-43
2023/05/13 05:18:51;;;;;;;23.85;20.45;;;;;;;11.57;100.00;102115.53;5012770;28;20064;-45
2023/05/13 05:21:17;;;;;;;24.55;21.90;;;;;;;11.42;100.00;102085.91;5011453;28;20416;-45
2023/05/13 05:23:42;;;;;;;22.15;19.35;;;;;;;11.88;100.00;102150.22;5012871;28;20033;-44
2023/05/13 05:26:08;;;;;;;24.88;21.25;;;;;;;11.57;100.00;102081.25;5013024;28;20397;-43
2023/05/13 05:28:33;;;;;;;22.83;20.50;;;;;;;11.64;100.00;102087.31;5012991;28;20499;-43
2023/05/13 05:31:00;;;;;;;23.90;20.63;;;;;;;12.01;100.00;102143.84;5011709;28;20386;-47
2023/05/13 05:33:25;;;;;;;23.60;19.38;;;;;;;12.21;100.00;102143.47;5012741;28;20038;-44
2023/05/13 05:35:51;;;;;;;24.00;21.15;;;;;;;11.98;100.00;102101.69;5012584;28;20046;-44
2023/05/13 05:38:16;;;;;;;24.88;20.70;;;;;;;12.16;100.00;102134.78;5011173;28;20040;-44
2023/05/13 05:40:43;;;;;;;25.05;20.65;;;;;;;12.11;100.00;102094.41;5012853;28;20038;-43
2023/05/13 05:43:12;;;;;;;23.45;19.38;;;;;;;12.51;100.00;102153.47;5012778;28;20034;-47
2023/05/13 05:45:38;;;;;;;22.10;19.77;;;;;;;12.23;100.00;102102.94;4995297;28;20474;-44
2023/05/13 05:48:05;;;;;;;21.98;19.60;;;;;;;12.61;100.00;102160.31;5012834;28;20040;-44
2023/05/13 05:50:31;;;;;;;23.02;20.45;;;;;;;12.68;100.00;102156.66;4995228;28;20400;-44
2023/05/13 05:52:58;;;;;;;20.67;18.58;;;;;;;12.80;100.00;102155.53;5012791;28;20530;-49
2023/05/13 05:55:23;;;;;;;21.45;18.98;;;;;;;12.86;100.00;102172.13;5011042;28;20030;-44
2023/05/13 05:57:48;;;;;;;20.60;18.42;;;;;;;12.91;100.00;102157.03;5012652;28;20084;-43
2023/05/13 06:00:14;;;;;;;21.02;18.83;;;;;;;13.05;100.00;102166.47;5012534;28;20030;-44
2023/05/13 06:02:39;;;;;;;20.83;18.30;;;;;;;12.78;100.00;102099.22;4995016;28;20048;-42
2023/05/13 06:05:06;;;;;;;22.35;17.73;;;;;;;12.93;100.00;102104.13;4994963;28;20388;-43
2023/05/13 06:07:31;;;;;;;18.70;16.58;;;;;;;13.24;100.00;102181.91;5012623;28;20125;-45
2023/05/13 06:09:56;;;;;;;21.10;16.80;;;;;;;13.31;100.00;102175.56;5012545;28;20141;-43
2023/05/13 06:12:22;;;;;;;19.58;17.40;;;;;;;13.41;100.00;102185.06;4992605;28;20053;-43
2023/05/13 06:14:48;;;;;;;16.95;15.30;;;;;;;13.16;100.00;102123.06;4991714;28;20038;-44
2023/05/13 06:17:16;;;;;;;18.20;16.35;;;;;;;13.62;100.00;102172.22;4990154;28;20038;-46
2023/05/13 06:19:41;;;;;;;18.05;15.02;;;;;;;13.61;100.00;102166.06;4969911;28;20541;-44
2023/05/13 06:22:07;;;;;;;18.38;15.38;;;;;;;13.75;100.00;102176.31;4992121;28;20157;-47
2023/05/13 06:24:33;;;;;;;16.30;14.70;;;;;;;13.57;100.00;102132.66;4992703;28;20403;-45
2023/05/13 06:26:58;;;;;;;16.23;14.68;;;;;;;13.92;100.00;102180.28;4990195;28;20299;-44
2023/05/13 06:29:23;;;;;;;16.40;14.90;;;;;;;14.03;100.00;102177.38;4990891;28;20038;-48
2023/05/13 06:31:49;;;;;;;16.90;15.10;;;;;;;14.12;100.00;102174.50;4991619;28;20084;-43
2023/05/13 06:34:15;;;;;;;19.23;15.02;;;;;;;13.84;100.00;102131.09;4991606;28;20475;-43
2023/05/13 06:36:41;;;;;;;18.95;14.35;;;;;;;14.16;100.00;102180.56;4992799;28;20037;-42
2023/05/13 06:39:07;;;;;;;16.17;14.38;;;;;;;14.28;100.00;102182.91;4992579;28;20076;-44
2023/05/13 06:41:32;;;;;;;17.15;14.65;;;;;;;14.03;100.00;102121.78;4992556;28;20046;-49
2023/05/13 06:43:57;;;;;;;16.00;14.18;;;;;;;14.38;100.00;102176.50;4990729;28;20049;-43
2023/05/13 06:46:23;;;;;;;14.15;12.75;;;;;;;14.21;100.00;102128.38;4973864;28;20052;-42
2023/05/13 06:48:51;;;;;;;17.45;14.10;;;;;;;14.26;100.00;102139.69;4990974;28;20030;-43
2023/05/13 06:51:16;;;;;;;14.48;12.88;;;;;;;14.64;100.00;102187.25;4991867;28;20043;-45
2023/05/13 06:53:41;;;;;;;16.65;12.00;;;;;;;14.76;100.00;102194.84;4992744;28;20026;-46
2023/05/13 06:56:07;;;;;;;13.25;11.95;;;;;;;14.21;100.00;102078.94;4993043;28;20042;-44
2023/05/13 06:58:32;;;;;;;14.13;12.65;;;;;;;14.93;100.00;102191.72;4979022;28;20034;-44
2023/05/13 07:00:57;;;;;;;13.73;12.32;;;;;;;14.97;100.00;102188.06;4992061;28;20073;-44
2023/05/13 07:03:23;;;;;;;13.13;11.52;;;;;;;15.19;100.00;102194.47;4994898;28;20068;-44
2023/05/13 07:05:48;;;;;;;12.38;11.07;;;;;;;14.97;100.00;102127.94;4978440;28;20042;-44
2023/05/13 07:08:16;;;;;;;12.90;11.20;;;;;;;15.52;100.00;102204.09;4994250;28;20037;-45
2023/05/13 07:10:42;;;;;;;11.75;10.20;;;;;;;15.28;100.00;102140.25;4996014;28;20093;-43
2023/05/13 07:13:07;;;;;;;15.07;9.25;;;;;;;15.65;100.00;102205.44;4978293;28;20039;-48
2023/05/13 07:15:32;;;;;;;11.43;9.35;;;;;;;15.19;100.00;102133.47;4978542;28;20104;-44
2023/05/13 07:17:58;;;;;;;9.77;8.25;;;;;;;15.64;100.00;102195.72;4978420;28;20528;-47
2023/05/13 07:20:25;;;;;;;10.20;8.93;;;;;;;15.86;100.00;102217.16;4995941;28;20507;-46
2023/05/13 07:22:50;;;;;;;10.10;7.90;;;;;;;16.16;100.00;102208.19;4995853;28;20125;-43
2023/05/13 07:25:16;;;;;;;8.82;7.90;;;;;;;16.34;100.00;102185.44;4975278;28;20553;-45
2023/05/13 07:27:42;;;;;;;8.98;7.53;;;;;;;16.76;100.00;102207.84;4978472;28;20429;-43
2023/05/13 07:30:09;;;;;;;8.43;7.57;;;;;;;17.01;100.00;102201.63;4994557;28;20227;-43
2023/05/13 07:32:35;;;;;;;12.98;7.70;;;;;;;17.17;100.00;102176.16;4995053;28;20060;-45
2023/05/13 07:35:02;;;;;;;12.05;7.70;;;;;;;17.30;100.00;102154.34;4965305;28;20026;-43
2023/05/13 07:37:27;;;;;;;8.95;6.82;;;;;;;17.51;100.00;102154.41;4976639;28;20457;-47
2023/05/13 07:39:52;;;;;;;11.63;7.05;;;;;;;18.25;100.00;102215.25;4995754;28;20041;-44
2023/05/13 07:42:18;;;;;;;10.98;7.22;;;;;;;18.32;100.00;102198.97;4994331;28;20461;-45
2023/05/13 07:44:44;;;;;;;7.88;6.47;;;;;;;18.66;100.00;102208.16;4994178;28;20474;-48
2023/05/13 07:47:09;;;;;;;8.48;7.38;;;;;;;18.65;100.00;102209.13;4977705;28;20097;-45
2023/05/13 07:49:34;;;;;;;8.73;6.25;;;;;;;18.67;100.00;102167.25;4976405;28;20023;-47
2023/05/13 07:52:00;;;;;;;8.18;6.25;;;;;;;19.01;100.00;102165.63;4960265;28;20038;-49
2023/05/13 07:54:25;;;;;;;9.23;5.85;;;;;;;19.70;100.00;102216.66;4963244;28;20089;-44
2023/05/13 07:56:50;;;;;;;10.02;6.72;;;;;;;19.68;100.00;102215.84;4994369;28;20034;-45
2023/05/13 07:59:17;;;;;;;6.85;6.15;;;;;;;19.85;100.00;102233.75;4994795;28;20043;-44
2023/05/13 08:01:42;;;;;;;7.63;5.95;;;;;;;19.50;100.00;102171.31;4994133;28;20038;-44
2023/05/13 08:04:08;;;;;;;12.52;6.32;;;;;;;19.49;100.00;102181.16;4977625;28;20026;-42
2023/05/13 08:06:33;;;;;;;6.00;5.50;;;;;;;19.89;100.00;102232.63;4994390;28;20050;-45
2023/05/13 08:08:59;;;;;;;8.10;5.43;;;;;;;19.94;100.00;102223.44;4977188;28;20400;-44
2023/05/13 08:11:25;;;;;;;8.85;6.00;;;;;;;19.48;100.00;102239.97;4994994;28;20136;-44
2023/05/13 08:13:50;;;;;;;7.72;5.65;;;;;;;19.27;100.00;102179.53;4993958;28;20442;-45
2023/05/13 08:16:16;;;;;;;8.32;5.30;;;;;;;19.51;100.00;102176.59;4976912;28;20123;-43
2023/05/13 08:18:41;;;;;;;7.88;5.28;;;;;;;20.24;100.00;102239.78;4995026;28;20034;-44
2023/05/13 08:21:07;;;;;;;8.07;5.63;;;;;;;20.41;100.00;102231.78;4989918;28;20054;-44
2023/05/13 08:23:33;;;;;;;7.20;5.07;;;;;;;20.51;100.00;102240.22;4977323;28;20133;-43
2023/05/13 08:25:58;;;;;;;5.82;4.82;;;;;;;20.76;100.00;102241.53;4994648;28;20034;-44
2023/05/13 08:28:26;;;;;;;6.30;4.78;;;;;;;20.21;100.00;102239.94;4994390;28;20034;-44
2023/05/13 08:30:51;;;;;;;6.80;4.70;;;;;;;20.19;100.00;102181.19;4994765;28;20081;-45
2023/05/13 08:33:16;;;;;;;10.27;4.57;;;;;;;20.86;100.00;102238.38;4994524;28;20042;-50
2023/05/13 08:35:42;;;;;;;10.88;4.60;;;;;;;21.29;100.00;102219.06;4992635;28;20108;-46
2023/05/13 08:38:07;;;;;;;5.20;4.70;;;;;;;21.07;100.00;102195.22;4994430;28;20038;-46
2023/05/13 08:40:32;;;;;;;6.80;4.65;;;;;;;21.52;100.00;102249.91;4994417;28;20038;-50
2023/05/13 08:43:02;;;;;;;10.48;4.95;;;;;;;21.55;100.00;102220.28;4994426;28;20046;-47
2023/05/13 08:45:29;;;;;;;4.85;4.00;;;;;;;21.22;100.00;102194.41;4994027;28;20038;-45
2023/05/13 08:48:00;;;;;;;5.95;4.00;;;;;;;21.47;100.00;102250.19;4994541;28;20034;-50
2023/05/13 08:50:27;;;;;;;8.23;4.35;;;;;;;21.31;100.00;102242.13;4974862;28;20105;-48
2023/05/13 08:52:53;;;;;;;5.97;4.10;;;;;;;21.80;100.00;102250.94;4976790;28;20022;-44
2023/05/13 08:55:19;;;;;;;6.35;4.13;;;;;;;21.53;100.00;102230.22;4976459;28;20595;-46
2023/05/13 08:57:44;;;;;;;6.93;4.35;;;;;;;21.92;100.00;102260.13;4957244;28;20046;-44
2023/05/13 09:00:10;;;;;;;5.32;3.65;;;;;;;22.11;100.00;102254.59;4974419;28;20031;-45
2023/05/13 09:02:36;;;;;;;8.93;4.30;;;;;;;21.68;100.00;102206.13;4973550;28;20117;-44
2023/05/13 09:05:05;;;;;;;7.13;4.25;;;;;;;22.15;100.00;102257.03;4979031;28;20113;-46
2023/05/13 09:07:30;;;;;;;5.68;4.00;;;;;;;22.05;100.00;102204.88;4993994;28;20426;-44
2023/05/13 09:09:56;;;;;;;5.70;4.20;;;;;;;22.07;100.00;102213.69;4991754;28;20088;-45
2023/05/13 09:12:47;;;;;;;4.95;3.97;;;;;;;22.27;100.00;102252.75;4976234;28;20406;-45
2023/05/13 09:15:15;;;;;;;7.93;4.00;;;;;;;21.97;100.00;102203.59;4993965;28;20501;-48
2023/05/13 09:17:42;;;;;;;7.63;3.80;;;;;;;22.83;100.00;102252.03;4993862;28;20050;-52
2023/05/13 09:20:09;;;;;;;6.85;3.60;;;;;;;23.09;100.00;102248.59;4974361;28;20026;-49
2023/05/13 09:22:35;;;;;;;4.63;4.00;;;;;;;22.62;100.00;102234.56;4974293;28;20041;-47
2023/05/13 09:25:01;;;;;;;7.43;3.92;;;;;;;23.08;100.00;102201.25;4974437;28;20390;-46
2023/05/13 09:27:37;;;;;;;13.75;3.47;;;;;;;23.21;100.00;102207.53;4974287;28;20043;-49
2023/05/13 09:30:03;;;;;;;6.82;3.72;;;;;;;23.30;100.00;102225.78;4973987;28;20106;-48
2023/05/13 09:32:28;;;;;;;6.72;4.40;;;;;;;23.00;100.00;102242.97;4989972;28;20125;-51
2023/05/13 09:34:54;;;;;;;7.35;4.00;;;;;;;23.07;100.00;102201.31;4993398;28;20468;-46
2023/05/13 09:37:22;;;;;;;7.18;3.72;;;;;;;23.51;100.00;102261.19;4993159;28;20532;-48
2023/05/13 09:39:51;;;;;;;6.35;3.88;;;;;;;22.70;100.00;102209.00;4977276;28;20055;-46
2023/05/13 09:42:18;;;;;;;7.10;3.83;;;;;;;23.10;100.00;102253.03;4987822;28;20061;-48
2023/05/13 09:44:44;;;;;;;7.55;3.72;;;;;;;22.46;100.00;102199.72;4975871;28;20410;-45
2023/05/13 09:47:13;;;;;;;7.30;3.78;;;;;;;23.18;100.00;102255.22;4975921;28;20118;-48
2023/05/13 09:49:40;;;;;;;8.13;3.65;;;;;;;22.34;100.00;102211.19;4975845;28;20038;-50
2023/05/13 09:52:10;;;;;;;8.75;3.65;;;;;;;23.15;100.00;102239.28;4974329;28;20066;-45
2023/05/13 09:54:36;;;;;;;4.37;3.10;;;;;;;23.79;100.00;102246.84;4993513;28;20097;-46
2023/05/13 09:57:02;;;;;;;7.95;3.60;;;;;;;23.95;100.00;102245.72;4961197;28;20693;-51
2023/05/13 09:59:31;;;;;;;6.40;3.88;;;;;;;24.35;100.00;102237.69;4989573;28;20030;-45
2023/05/13 10:01:59;;;;;;;4.65;3.17;;;;;;;24.60;100.00;102190.16;4991500;28;20074;-46
2023/05/13 10:04:25;;;;;;;5.10;3.55;;;;;;;25.03;100.00;102192.53;4992925;28;20061;-49
2023/05/13 10:06:51;;;;;;;5.90;3.95;;;;;;;25.19;100.00;102239.81;4975435;28;20073;-52
2023/05/13 10:09:16;;;;;;;6.22;3.60;;;;;;;25.62;100.00;102232.22;4993174;28;20359;-47
2023/05/13 10:11:46;;;;;;;5.97;3.97;;;;;;;24.95;100.00;102190.38;4959119;28;20094;-52
2023/05/13 10:14:12;;;;;;;5.07;4.00;;;;;;;25.21;100.00;102188.50;4975480;28;20030;-49
2023/05/13 10:16:37;;;;;;;8.02;3.47;;;;;;;24.33;100.00;102183.13;4953960;28;20049;-47
2023/05/13 10:19:03;;;;;;;5.25;3.42;;;;;;;25.46;100.00;102234.25;4979800;28;20079;-49
2023/05/13 10:21:30;;;;;;;5.20;3.28;;;;;;;25.38;100.00;102219.63;4950683;28;20043;-46
2023/05/13 10:23:55;;;;;;;11.02;3.85;;;;;;;24.86;100.00;102242.22;4969516;28;20097;-49
2023/05/13 10:26:21;;;;;;;4.85;3.70;;;;;;;24.95;100.00;102185.00;4973175;28;20030;-47
2023/05/13 10:28:48;;;;;;;5.38;3.97;;;;;;;24.98;100.00;102238.66;4971182;28;20051;-46
2023/05/13 10:31:13;;;;;;;6.45;4.40;;;;;;;24.54;100.00;102216.63;4974900;28;20043;-45
2023/05/13 10:33:40;;;;;;;8.18;4.60;;;;;;;24.39;100.00;102213.16;4977175;28;20049;-45
2023/05/13 10:36:25;;;;;;;5.00;3.80;;;;;;;25.29;100.00;102218.44;4959860;28;20035;-48
2023/05/13 10:39:05;;;;;;;5.22;4.30;;;;;;;24.88;100.00;102221.41;4975104;28;20031;-48
2023/05/13 10:41:33;;;;;;;7.97;4.30;;;;;;;25.43;100.00;102226.41;4977089;28;20298;-44
2023/05/13 10:43:59;;;;;;;8.70;4.25;;;;;;;24.99;100.00;102173.00;4976976;28;20043;-45
2023/05/13 10:46:24;;;;;;;5.22;4.10;;;;;;;25.10;100.00;102228.84;4975562;28;20064;-44
2023/05/13 10:48:55;;;;;;;6.97;3.83;;;;;;;25.43;100.00;102222.84;4977075;28;20128;-47
2023/05/13 10:51:23;;;;;;;8.68;4.97;;;;;;;25.09;100.00;102213.63;4977208;28;20034;-47
2023/05/13 10:53:53;;;;;;;5.43;4.13;;;;;;;25.31;100.00;102224.59;4959683;28;20371;-51
2023/05/13 10:56:20;;;;;;;9.00;5.13;;;;;;;25.53;100.00;102202.34;4958720;28;20121;-50
2023/05/13 10:59:03;;;;;;;5.20;4.05;;;;;;;25.23;100.00;102172.22;4959696;28;20053;-49
2023/05/13 11:01:37;;;;;;;6.22;4.38;;;;;;;25.37;100.00;102210.66;4976959;28;20106;-48
2023/05/13 11:04:04;;;;;;;6.47;4.55;;;;;;;25.51;100.00;102225.88;4976799;28;20505;-47